Orbital elements of ORBCOMM FM36 DEB
| Launched | 3 December 1999 |
| Flight ended | – |
| Launch site | Eastern Range Airspace |
| Owner | ORBCOMM |
| NORAD ID | 56437 |
| Date fetched |
Epoch osculation |
Inc. [°] |
Ecc. | RA asc node [hr] |
Arg Peri. [°] |
Mean anom [°] |
Mean motion [rev/day] |
Abs. mag |
| Date fetched |
Epoch osculation |
Inc. [°] |
Ecc. | RA asc node [hr] |
Arg Peri. [°] |
Mean anom [°] |
Mean motion [rev/day] |
Abs. mag |
| 2026 May 03 17:57 | 2026 Apr 30 15:27:48 | 44.9418 | 0.00162 | 0.1092 | 174.9869 | 185.1144 | 14.39485 | – |
| 2026 May 02 17:57 | 2026 Apr 30 15:27:48 | 44.9418 | 0.00162 | 0.1092 | 174.9869 | 185.1144 | 14.39485 | – |
| 2026 May 01 17:56 | 2026 Apr 30 15:27:48 | 44.9418 | 0.00162 | 0.1092 | 174.9869 | 185.1144 | 14.39485 | – |
| 2026 Apr 30 17:56 | 2026 Apr 30 15:27:48 | 44.9418 | 0.00162 | 0.1092 | 174.9869 | 185.1144 | 14.39485 | – |
| 2026 Apr 29 17:57 | 2026 Apr 24 02:53:36 | 44.9414 | 0.00157 | 2.1783 | 141.4441 | 185.1144 | 14.39485 | – |
| 2026 Apr 28 17:56 | 2026 Apr 24 02:53:36 | 44.9414 | 0.00157 | 2.1783 | 141.4441 | 185.1144 | 14.39485 | – |
| 2026 Apr 27 17:58 | 2026 Apr 24 02:53:36 | 44.9414 | 0.00157 | 2.1783 | 141.4441 | 185.1144 | 14.39485 | – |
| 2026 Apr 26 17:58 | 2026 Apr 24 02:53:36 | 44.9414 | 0.00157 | 2.1783 | 141.4441 | 185.1144 | 14.39485 | – |
| 2026 Apr 25 17:58 | 2026 Apr 24 02:53:36 | 44.9414 | 0.00157 | 2.1783 | 141.4441 | 185.1144 | 14.39485 | – |
| 2026 Apr 24 17:59 | 2026 Apr 24 02:53:36 | 44.9414 | 0.00157 | 2.1783 | 141.4441 | 185.1144 | 14.39485 | – |
| 2026 Apr 23 17:57 | 2026 Apr 19 04:37:56 | 44.9405 | 0.00154 | 3.7412 | 115.5167 | 185.1144 | 14.39485 | – |
| 2026 Apr 22 17:57 | 2026 Apr 19 04:37:56 | 44.9405 | 0.00154 | 3.7412 | 115.5167 | 185.1144 | 14.39485 | – |
| 2026 Apr 21 17:57 | 2026 Apr 19 04:37:56 | 44.9405 | 0.00154 | 3.7412 | 115.5167 | 185.1144 | 14.39485 | – |
| 2026 Apr 20 17:57 | 2026 Apr 19 04:37:56 | 44.9405 | 0.00154 | 3.7412 | 115.5167 | 185.1144 | 14.39485 | – |
| 2026 Apr 19 17:58 | 2026 Apr 19 04:37:56 | 44.9405 | 0.00154 | 3.7412 | 115.5167 | 185.1144 | 14.39485 | – |
| 2026 Apr 18 17:56 | 2026 Apr 13 05:23:10 | 44.9394 | 0.00153 | 5.6344 | 83.7400 | 185.1144 | 14.39485 | – |
| 2026 Apr 16 17:57 | 2026 Apr 13 05:23:10 | 44.9394 | 0.00153 | 5.6344 | 83.7400 | 185.1144 | 14.39485 | – |
| 2026 Apr 14 17:57 | 2026 Apr 13 05:23:10 | 44.9394 | 0.00153 | 5.6344 | 83.7400 | 185.1144 | 14.39485 | – |
| 2026 Apr 13 17:57 | 2026 Apr 13 05:23:10 | 44.9394 | 0.00153 | 5.6344 | 83.7400 | 185.1144 | 14.39485 | – |
| 2026 Apr 12 17:57 | 2026 Apr 08 08:47:23 | 44.9388 | 0.00154 | 7.1753 | 57.9755 | 185.1144 | 14.39485 | – |
| 2026 Apr 11 17:57 | 2026 Apr 08 08:47:23 | 44.9388 | 0.00154 | 7.1753 | 57.9755 | 185.1144 | 14.39485 | – |
| 2026 Apr 10 17:58 | 2026 Apr 08 08:47:23 | 44.9388 | 0.00154 | 7.1753 | 57.9755 | 185.1144 | 14.39485 | – |
| 2026 Apr 09 18:01 | 2026 Apr 08 08:47:23 | 44.9388 | 0.00154 | 7.1753 | 57.9755 | 185.1144 | 14.39485 | – |
| 2026 Apr 08 17:57 | 2026 Apr 08 08:47:23 | 44.9388 | 0.00154 | 7.1753 | 57.9755 | 185.1144 | 14.39485 | – |
| 2026 Apr 07 17:57 | 2026 Apr 01 20:13:00 | 44.9388 | 0.00157 | 9.2446 | 23.8882 | 185.1144 | 14.39485 | – |
| 2026 Apr 06 17:57 | 2026 Apr 01 20:13:00 | 44.9388 | 0.00157 | 9.2446 | 23.8882 | 185.1144 | 14.39485 | – |